sensor_id;sensor_type;location;lat;lon;timestamp;temperature;humidity
15705;DHT22;7952;48.396;12.806;2024-01-25T00:01:58;10.40;55.80
15705;DHT22;7952;48.396;12.806;2024-01-25T00:04:24;10.40;55.80
15705;DHT22;7952;48.396;12.806;2024-01-25T00:06:50;10.40;55.80
15705;DHT22;7952;48.396;12.806;2024-01-25T00:09:18;10.40;55.90
15705;DHT22;7952;48.396;12.806;2024-01-25T00:11:44;10.40;55.80
15705;DHT22;7952;48.396;12.806;2024-01-25T00:14:10;10.40;55.90
15705;DHT22;7952;48.396;12.806;2024-01-25T00:16:35;10.30;55.80
15705;DHT22;7952;48.396;12.806;2024-01-25T00:19:05;10.30;55.80
15705;DHT22;7952;48.396;12.806;2024-01-25T00:21:31;10.30;55.80
15705;DHT22;7952;48.396;12.806;2024-01-25T00:23:56;10.30;55.80
15705;DHT22;7952;48.396;12.806;2024-01-25T00:26:22;10.30;55.80
15705;DHT22;7952;48.396;12.806;2024-01-25T00:28:48;10.30;55.80
15705;DHT22;7952;48.396;12.806;2024-01-25T00:31:13;10.30;55.80
15705;DHT22;7952;48.396;12.806;2024-01-25T00:33:39;10.30;55.80
15705;DHT22;7952;48.396;12.806;2024-01-25T00:36:05;10.30;55.80
15705;DHT22;7952;48.396;12.806;2024-01-25T00:38:31;10.30;55.80
15705;DHT22;7952;48.396;12.806;2024-01-25T00:40:57;10.30;55.80
15705;DHT22;7952;48.396;12.806;2024-01-25T00:43:23;10.30;55.80
15705;DHT22;7952;48.396;12.806;2024-01-25T00:45:49;10.30;55.80
15705;DHT22;7952;48.396;12.806;2024-01-25T00:48:15;10.30;55.80
15705;DHT22;7952;48.396;12.806;2024-01-25T00:50:40;10.30;55.80
15705;DHT22;7952;48.396;12.806;2024-01-25T00:53:06;10.30;55.80
15705;DHT22;7952;48.396;12.806;2024-01-25T00:55:32;10.30;55.80
15705;DHT22;7952;48.396;12.806;2024-01-25T00:57:58;10.20;55.70
15705;DHT22;7952;48.396;12.806;2024-01-25T01:00:25;10.30;55.80
15705;DHT22;7952;48.396;12.806;2024-01-25T01:02:53;10.20;55.70
15705;DHT22;7952;48.396;12.806;2024-01-25T01:05:19;10.20;55.70
15705;DHT22;7952;48.396;12.806;2024-01-25T01:07:45;10.20;55.70
15705;DHT22;7952;48.396;12.806;2024-01-25T01:10:10;10.20;55.70
15705;DHT22;7952;48.396;12.806;2024-01-25T01:12:37;10.20;55.70
15705;DHT22;7952;48.396;12.806;2024-01-25T01:15:03;10.20;55.80
15705;DHT22;7952;48.396;12.806;2024-01-25T01:17:29;10.20;55.80
15705;DHT22;7952;48.396;12.806;2024-01-25T01:19:54;10.20;55.70
15705;DHT22;7952;48.396;12.806;2024-01-25T01:22:20;10.20;55.80
15705;DHT22;7952;48.396;12.806;2024-01-25T01:24:46;10.20;55.70
15705;DHT22;7952;48.396;12.806;2024-01-25T01:27:11;10.20;55.70
15705;DHT22;7952;48.396;12.806;2024-01-25T01:29:37;10.20;55.70
15705;DHT22;7952;48.396;12.806;2024-01-25T01:32:03;10.20;55.70
15705;DHT22;7952;48.396;12.806;2024-01-25T01:34:29;10.20;55.70
15705;DHT22;7952;48.396;12.806;2024-01-25T01:36:54;10.20;56.30
15705;DHT22;7952;48.396;12.806;2024-01-25T01:39:20;10.20;55.80
15705;DHT22;7952;48.396;12.806;2024-01-25T01:41:49;10.20;55.70
15705;DHT22;7952;48.396;12.806;2024-01-25T01:44:15;10.20;55.70
15705;DHT22;7952;48.396;12.806;2024-01-25T01:46:41;10.20;55.70
15705;DHT22;7952;48.396;12.806;2024-01-25T01:49:11;10.20;55.70
15705;DHT22;7952;48.396;12.806;2024-01-25T01:51:37;10.20;55.70
15705;DHT22;7952;48.396;12.806;2024-01-25T01:54:06;10.20;55.70
15705;DHT22;7952;48.396;12.806;2024-01-25T01:56:32;10.20;55.70
15705;DHT22;7952;48.396;12.806;2024-01-25T01:59:00;10.20;55.70
15705;DHT22;7952;48.396;12.806;2024-01-25T02:01:26;10.20;55.70
15705;DHT22;7952;48.396;12.806;2024-01-25T02:03:52;10.20;55.70
15705;DHT22;7952;48.396;12.806;2024-01-25T02:06:22;10.20;55.70
15705;DHT22;7952;48.396;12.806;2024-01-25T02:08:48;10.20;55.70
15705;DHT22;7952;48.396;12.806;2024-01-25T02:11:15;10.20;55.70
15705;DHT22;7952;48.396;12.806;2024-01-25T02:13:41;10.20;55.70
15705;DHT22;7952;48.396;12.806;2024-01-25T02:16:09;10.20;55.70
15705;DHT22;7952;48.396;12.806;2024-01-25T02:18:35;10.20;55.70
15705;DHT22;7952;48.396;12.806;2024-01-25T02:21:01;10.10;55.60
15705;DHT22;7952;48.396;12.806;2024-01-25T02:23:26;10.20;55.70
15705;DHT22;7952;48.396;12.806;2024-01-25T02:25:52;10.20;55.70
15705;DHT22;7952;48.396;12.806;2024-01-25T02:28:18;10.20;55.70
15705;DHT22;7952;48.396;12.806;2024-01-25T02:30:44;10.20;55.60
15705;DHT22;7952;48.396;12.806;2024-01-25T02:33:09;10.20;55.60
15705;DHT22;7952;48.396;12.806;2024-01-25T02:35:36;10.20;55.60
15705;DHT22;7952;48.396;12.806;2024-01-25T02:38:02;10.20;55.60
15705;DHT22;7952;48.396;12.806;2024-01-25T02:40:28;10.20;55.60
15705;DHT22;7952;48.396;12.806;2024-01-25T02:42:53;10.20;55.60
15705;DHT22;7952;48.396;12.806;2024-01-25T02:45:19;10.20;55.60
15705;DHT22;7952;48.396;12.806;2024-01-25T02:47:44;10.20;55.60
15705;DHT22;7952;48.396;12.806;2024-01-25T02:50:10;10.20;55.60
15705;DHT22;7952;48.396;12.806;2024-01-25T02:52:35;10.20;55.60
15705;DHT22;7952;48.396;12.806;2024-01-25T02:55:01;10.20;55.60
15705;DHT22;7952;48.396;12.806;2024-01-25T02:57:27;10.20;55.60
15705;DHT22;7952;48.396;12.806;2024-01-25T02:59:52;10.20;55.60
15705;DHT22;7952;48.396;12.806;2024-01-25T03:02:18;10.20;55.60
15705;DHT22;7952;48.396;12.806;2024-01-25T03:04:46;10.20;55.60
15705;DHT22;7952;48.396;12.806;2024-01-25T03:07:12;10.20;55.60
15705;DHT22;7952;48.396;12.806;2024-01-25T03:09:37;10.20;55.60
15705;DHT22;7952;48.396;12.806;2024-01-25T03:12:03;10.20;55.60
15705;DHT22;7952;48.396;12.806;2024-01-25T03:14:29;10.20;55.60
15705;DHT22;7952;48.396;12.806;2024-01-25T03:16:54;10.20;55.60
15705;DHT22;7952;48.396;12.806;2024-01-25T03:19:20;10.20;55.60
15705;DHT22;7952;48.396;12.806;2024-01-25T03:21:45;10.20;55.60
15705;DHT22;7952;48.396;12.806;2024-01-25T03:24:11;10.20;55.60
15705;DHT22;7952;48.396;12.806;2024-01-25T03:26:36;10.20;55.60
15705;DHT22;7952;48.396;12.806;2024-01-25T03:29:02;10.20;55.70
15705;DHT22;7952;48.396;12.806;2024-01-25T03:31:28;10.20;55.60
15705;DHT22;7952;48.396;12.806;2024-01-25T03:33:53;10.20;55.70
15705;DHT22;7952;48.396;12.806;2024-01-25T03:36:19;10.20;55.60
15705;DHT22;7952;48.396;12.806;2024-01-25T03:38:44;10.20;55.60
15705;DHT22;7952;48.396;12.806;2024-01-25T03:41:10;10.20;55.60
15705;DHT22;7952;48.396;12.806;2024-01-25T03:43:35;10.20;55.60
15705;DHT22;7952;48.396;12.806;2024-01-25T03:46:01;10.20;55.70
15705;DHT22;7952;48.396;12.806;2024-01-25T03:48:28;10.20;55.60
15705;DHT22;7952;48.396;12.806;2024-01-25T03:50:54;10.10;55.60
15705;DHT22;7952;48.396;12.806;2024-01-25T03:53:22;10.10;55.60
15705;DHT22;7952;48.396;12.806;2024-01-25T03:55:48;10.10;55.60
15705;DHT22;7952;48.396;12.806;2024-01-25T03:58:18;10.10;55.60
15705;DHT22;7952;48.396;12.806;2024-01-25T04:00:43;10.10;55.60
15705;DHT22;7952;48.396;12.806;2024-01-25T04:03:10;10.10;55.60
15705;DHT22;7952;48.396;12.806;2024-01-25T04:05:36;10.10;55.60
15705;DHT22;7952;48.396;12.806;2024-01-25T04:08:02;10.10;55.70
15705;DHT22;7952;48.396;12.806;2024-01-25T04:10:28;10.10;55.60
15705;DHT22;7952;48.396;12.806;2024-01-25T04:12:54;10.10;55.70
15705;DHT22;7952;48.396;12.806;2024-01-25T04:15:19;10.10;55.60
15705;DHT22;7952;48.396;12.806;2024-01-25T04:17:45;10.10;55.60
15705;DHT22;7952;48.396;12.806;2024-01-25T04:20:11;10.10;55.60
15705;DHT22;7952;48.396;12.806;2024-01-25T04:22:37;10.10;55.60
15705;DHT22;7952;48.396;12.806;2024-01-25T04:25:03;10.10;55.60
15705;DHT22;7952;48.396;12.806;2024-01-25T04:27:30;10.00;55.50
15705;DHT22;7952;48.396;12.806;2024-01-25T04:29:55;10.00;55.50
15705;DHT22;7952;48.396;12.806;2024-01-25T04:32:21;10.00;55.60
15705;DHT22;7952;48.396;12.806;2024-01-25T04:34:46;10.00;55.60
15705;DHT22;7952;48.396;12.806;2024-01-25T04:37:13;9.90;56.50
15705;DHT22;7952;48.396;12.806;2024-01-25T04:39:39;10.00;55.70
15705;DHT22;7952;48.396;12.806;2024-01-25T04:42:05;9.90;56.60
15705;DHT22;7952;48.396;12.806;2024-01-25T04:44:31;9.90;56.70
15705;DHT22;7952;48.396;12.806;2024-01-25T04:46:56;9.90;56.60
15705;DHT22;7952;48.396;12.806;2024-01-25T04:49:22;9.90;56.70
15705;DHT22;7952;48.396;12.806;2024-01-25T04:51:47;9.80;57.20
15705;DHT22;7952;48.396;12.806;2024-01-25T04:54:13;9.90;56.70
15705;DHT22;7952;48.396;12.806;2024-01-25T04:56:41;9.90;56.70
15705;DHT22;7952;48.396;12.806;2024-01-25T04:59:07;9.90;56.80
15705;DHT22;7952;48.396;12.806;2024-01-25T05:01:32;9.80;56.70
15705;DHT22;7952;48.396;12.806;2024-01-25T05:03:58;9.80;56.70
15705;DHT22;7952;48.396;12.806;2024-01-25T05:06:23;9.80;56.70
15705;DHT22;7952;48.396;12.806;2024-01-25T05:08:49;9.80;56.70
15705;DHT22;7952;48.396;12.806;2024-01-25T05:11:14;9.80;56.70
15705;DHT22;7952;48.396;12.806;2024-01-25T05:13:40;9.80;56.70
15705;DHT22;7952;48.396;12.806;2024-01-25T05:16:05;9.80;57.30
15705;DHT22;7952;48.396;12.806;2024-01-25T05:18:31;9.80;56.70
15705;DHT22;7952;48.396;12.806;2024-01-25T05:20:57;9.70;56.70
15705;DHT22;7952;48.396;12.806;2024-01-25T05:23:23;9.70;56.70
15705;DHT22;7952;48.396;12.806;2024-01-25T05:25:48;9.70;56.70
15705;DHT22;7952;48.396;12.806;2024-01-25T05:28:14;9.70;56.80
15705;DHT22;7952;48.396;12.806;2024-01-25T05:30:39;9.70;56.80
15705;DHT22;7952;48.396;12.806;2024-01-25T05:33:05;9.70;56.80
15705;DHT22;7952;48.396;12.806;2024-01-25T05:35:31;9.70;56.80
15705;DHT22;7952;48.396;12.806;2024-01-25T05:37:57;9.70;56.80
15705;DHT22;7952;48.396;12.806;2024-01-25T05:40:22;9.70;56.80
15705;DHT22;7952;48.396;12.806;2024-01-25T05:42:48;9.70;56.80
15705;DHT22;7952;48.396;12.806;2024-01-25T05:45:13;9.70;56.80
15705;DHT22;7952;48.396;12.806;2024-01-25T05:47:39;9.70;56.90
15705;DHT22;7952;48.396;12.806;2024-01-25T05:50:05;9.70;56.80
15705;DHT22;7952;48.396;12.806;2024-01-25T05:52:30;9.70;56.80
15705;DHT22;7952;48.396;12.806;2024-01-25T05:54:56;9.70;56.90
15705;DHT22;7952;48.396;12.806;2024-01-25T05:57:22;9.70;56.80
15705;DHT22;7952;48.396;12.806;2024-01-25T05:59:47;9.70;56.80
15705;DHT22;7952;48.396;12.806;2024-01-25T06:02:13;9.70;56.80
15705;DHT22;7952;48.396;12.806;2024-01-25T06:04:39;9.80;56.80
15705;DHT22;7952;48.396;12.806;2024-01-25T06:07:04;9.80;56.80
15705;DHT22;7952;48.396;12.806;2024-01-25T06:09:30;9.80;56.80
15705;DHT22;7952;48.396;12.806;2024-01-25T06:11:57;9.80;56.80
15705;DHT22;7952;48.396;12.806;2024-01-25T06:14:23;9.80;56.80
15705;DHT22;7952;48.396;12.806;2024-01-25T06:16:49;9.80;56.80
15705;DHT22;7952;48.396;12.806;2024-01-25T06:19:14;9.80;56.80
15705;DHT22;7952;48.396;12.806;2024-01-25T06:21:40;9.80;56.80
15705;DHT22;7952;48.396;12.806;2024-01-25T06:24:06;9.80;56.70
15705;DHT22;7952;48.396;12.806;2024-01-25T06:26:31;9.80;56.70
15705;DHT22;7952;48.396;12.806;2024-01-25T06:28:57;9.80;56.80
15705;DHT22;7952;48.396;12.806;2024-01-25T06:31:26;9.80;56.70
15705;DHT22;7952;48.396;12.806;2024-01-25T06:33:52;9.80;56.70
15705;DHT22;7952;48.396;12.806;2024-01-25T06:36:22;9.70;56.70
15705;DHT22;7952;48.396;12.806;2024-01-25T06:38:47;9.70;56.70
15705;DHT22;7952;48.396;12.806;2024-01-25T06:41:13;9.70;56.70
15705;DHT22;7952;48.396;12.806;2024-01-25T06:43:41;9.60;56.70
15705;DHT22;7952;48.396;12.806;2024-01-25T06:46:07;9.60;56.70
15705;DHT22;7952;48.396;12.806;2024-01-25T06:48:33;9.60;56.80
15705;DHT22;7952;48.396;12.806;2024-01-25T06:50:59;9.50;56.80
15705;DHT22;7952;48.396;12.806;2024-01-25T06:53:26;9.50;56.90
15705;DHT22;7952;48.396;12.806;2024-01-25T06:55:51;9.40;56.90
15705;DHT22;7952;48.396;12.806;2024-01-25T06:58:17;9.40;56.90
15705;DHT22;7952;48.396;12.806;2024-01-25T07:00:43;9.40;56.90
15705;DHT22;7952;48.396;12.806;2024-01-25T07:03:10;9.40;56.90
15705;DHT22;7952;48.396;12.806;2024-01-25T07:05:36;9.40;56.90
15705;DHT22;7952;48.396;12.806;2024-01-25T07:08:02;9.40;56.90
15705;DHT22;7952;48.396;12.806;2024-01-25T07:10:28;9.40;56.90
15705;DHT22;7952;48.396;12.806;2024-01-25T07:12:53;9.30;57.00
15705;DHT22;7952;48.396;12.806;2024-01-25T07:15:19;9.40;57.00
15705;DHT22;7952;48.396;12.806;2024-01-25T07:17:45;9.40;57.10
15705;DHT22;7952;48.396;12.806;2024-01-25T07:20:10;9.50;57.30
15705;DHT22;7952;48.396;12.806;2024-01-25T07:22:36;9.60;57.50
15705;DHT22;7952;48.396;12.806;2024-01-25T07:25:02;9.70;57.60
15705;DHT22;7952;48.396;12.806;2024-01-25T07:27:28;9.90;57.50
15705;DHT22;7952;48.396;12.806;2024-01-25T07:29:53;10.00;56.60
15705;DHT22;7952;48.396;12.806;2024-01-25T07:32:19;10.20;56.70
15705;DHT22;7952;48.396;12.806;2024-01-25T07:34:45;10.30;56.70
15705;DHT22;7952;48.396;12.806;2024-01-25T07:37:12;10.40;56.40
15705;DHT22;7952;48.396;12.806;2024-01-25T07:39:38;10.50;56.20
15705;DHT22;7952;48.396;12.806;2024-01-25T07:42:05;10.60;56.30
15705;DHT22;7952;48.396;12.806;2024-01-25T07:44:31;10.60;56.10
15705;DHT22;7952;48.396;12.806;2024-01-25T07:46:57;10.70;55.90
15705;DHT22;7952;48.396;12.806;2024-01-25T07:49:23;10.70;56.40
15705;DHT22;7952;48.396;12.806;2024-01-25T07:51:48;10.60;55.60
15705;DHT22;7952;48.396;12.806;2024-01-25T07:54:14;10.60;55.70
15705;DHT22;7952;48.396;12.806;2024-01-25T07:56:40;10.60;56.00
15705;DHT22;7952;48.396;12.806;2024-01-25T07:59:13;10.80;56.50
15705;DHT22;7952;48.396;12.806;2024-01-25T08:01:42;11.20;57.10
15705;DHT22;7952;48.396;12.806;2024-01-25T08:04:08;11.60;57.40
15705;DHT22;7952;48.396;12.806;2024-01-25T08:06:33;11.90;57.20
15705;DHT22;7952;48.396;12.806;2024-01-25T08:08:59;12.30;56.80
15705;DHT22;7952;48.396;12.806;2024-01-25T08:11:25;12.40;56.30
15705;DHT22;7952;48.396;12.806;2024-01-25T08:13:51;12.50;56.70
15705;DHT22;7952;48.396;12.806;2024-01-25T08:16:17;12.50;55.80
15705;DHT22;7952;48.396;12.806;2024-01-25T08:18:49;12.50;55.60
15705;DHT22;7952;48.396;12.806;2024-01-25T08:21:15;12.40;55.40
15705;DHT22;7952;48.396;12.806;2024-01-25T08:23:41;12.30;55.30
15705;DHT22;7952;48.396;12.806;2024-01-25T08:26:16;12.40;55.80
15705;DHT22;7952;48.396;12.806;2024-01-25T08:42:07;13.80;55.40
15705;DHT22;7952;48.396;12.806;2024-01-25T08:44:33;13.70;55.40
15705;DHT22;7952;48.396;12.806;2024-01-25T10:03:28;13.50;54.60
15705;DHT22;7952;48.396;12.806;2024-01-25T11:13:38;14.10;52.90
15705;DHT22;7952;48.396;12.806;2024-01-25T11:40:52;14.30;52.00
15705;DHT22;7952;48.396;12.806;2024-01-25T11:44:02;14.20;51.90
15705;DHT22;7952;48.396;12.806;2024-01-25T11:57:17;13.90;51.70
15705;DHT22;7952;48.396;12.806;2024-01-25T12:41:00;13.40;52.10
15705;DHT22;7952;48.396;12.806;2024-01-25T12:57:09;12.90;51.70
15705;DHT22;7952;48.396;12.806;2024-01-25T12:59:36;12.80;51.70
15705;DHT22;7952;48.396;12.806;2024-01-25T13:02:04;12.70;51.70
15705;DHT22;7952;48.396;12.806;2024-01-25T13:04:30;12.60;51.70
15705;DHT22;7952;48.396;12.806;2024-01-25T13:06:56;12.70;51.80
15705;DHT22;7952;48.396;12.806;2024-01-25T13:09:23;12.60;51.80
15705;DHT22;7952;48.396;12.806;2024-01-25T13:11:49;12.70;51.90
15705;DHT22;7952;48.396;12.806;2024-01-25T13:14:19;12.60;51.80
15705;DHT22;7952;48.396;12.806;2024-01-25T13:16:48;12.60;51.80
15705;DHT22;7952;48.396;12.806;2024-01-25T13:19:25;12.70;51.90
15705;DHT22;7952;48.396;12.806;2024-01-25T13:24:42;12.70;51.80
15705;DHT22;7952;48.396;12.806;2024-01-25T13:27:09;12.60;51.70
15705;DHT22;7952;48.396;12.806;2024-01-25T13:29:34;12.60;51.70
15705;DHT22;7952;48.396;12.806;2024-01-25T13:32:03;12.60;51.70
15705;DHT22;7952;48.396;12.806;2024-01-25T13:34:38;12.60;51.70
15705;DHT22;7952;48.396;12.806;2024-01-25T13:37:04;12.60;51.70
15705;DHT22;7952;48.396;12.806;2024-01-25T13:40:07;12.60;51.70
15705;DHT22;7952;48.396;12.806;2024-01-25T13:42:36;12.60;51.70
15705;DHT22;7952;48.396;12.806;2024-01-25T13:45:02;12.50;51.70
15705;DHT22;7952;48.396;12.806;2024-01-25T13:47:28;12.60;51.70
15705;DHT22;7952;48.396;12.806;2024-01-25T13:49:54;12.50;51.60
15705;DHT22;7952;48.396;12.806;2024-01-25T13:52:20;12.50;51.50
15705;DHT22;7952;48.396;12.806;2024-01-25T13:54:47;12.50;51.50
15705;DHT22;7952;48.396;12.806;2024-01-25T13:57:25;12.50;51.50
15705;DHT22;7952;48.396;12.806;2024-01-25T13:59:54;12.40;51.50
15705;DHT22;7952;48.396;12.806;2024-01-25T14:02:20;12.40;51.50
15705;DHT22;7952;48.396;12.806;2024-01-25T14:04:56;12.40;51.60
15705;DHT22;7952;48.396;12.806;2024-01-25T14:07:22;12.40;51.60
15705;DHT22;7952;48.396;12.806;2024-01-25T14:09:48;12.40;52.20
15705;DHT22;7952;48.396;12.806;2024-01-25T14:15:09;12.40;51.50
15705;DHT22;7952;48.396;12.806;2024-01-25T14:17:34;12.40;51.40
15705;DHT22;7952;48.396;12.806;2024-01-25T14:20:02;12.40;51.40
15705;DHT22;7952;48.396;12.806;2024-01-25T14:22:28;12.30;51.30
15705;DHT22;7952;48.396;12.806;2024-01-25T14:24:54;12.30;51.40
15705;DHT22;7952;48.396;12.806;2024-01-25T14:27:38;12.30;51.40
15705;DHT22;7952;48.396;12.806;2024-01-25T14:30:05;12.20;51.30
15705;DHT22;7952;48.396;12.806;2024-01-25T14:32:32;12.20;51.40
15705;DHT22;7952;48.396;12.806;2024-01-25T14:34:58;12.10;51.30
15705;DHT22;7952;48.396;12.806;2024-01-25T14:37:24;12.10;51.40
15705;DHT22;7952;48.396;12.806;2024-01-25T14:39:50;12.00;51.30
15705;DHT22;7952;48.396;12.806;2024-01-25T14:42:15;12.00;51.30
15705;DHT22;7952;48.396;12.806;2024-01-25T14:44:44;11.90;51.40
15705;DHT22;7952;48.396;12.806;2024-01-25T14:47:10;11.90;51.50
15705;DHT22;7952;48.396;12.806;2024-01-25T14:49:37;11.70;51.40
15705;DHT22;7952;48.396;12.806;2024-01-25T14:52:09;11.70;51.40
15705;DHT22;7952;48.396;12.806;2024-01-25T14:54:35;11.70;51.50
15705;DHT22;7952;48.396;12.806;2024-01-25T14:57:01;11.60;51.50
15705;DHT22;7952;48.396;12.806;2024-01-25T14:59:27;11.60;51.60
15705;DHT22;7952;48.396;12.806;2024-01-25T15:01:52;11.50;51.50
15705;DHT22;7952;48.396;12.806;2024-01-25T15:04:18;11.50;51.60
15705;DHT22;7952;48.396;12.806;2024-01-25T15:06:44;11.50;51.60
15705;DHT22;7952;48.396;12.806;2024-01-25T15:37:13;10.90;51.80
15705;DHT22;7952;48.396;12.806;2024-01-25T15:39:39;10.80;51.70
15705;DHT22;7952;48.396;12.806;2024-01-25T15:42:15;10.70;51.80
15705;DHT22;7952;48.396;12.806;2024-01-25T15:44:44;10.70;51.90
15705;DHT22;7952;48.396;12.806;2024-01-25T15:47:10;10.60;51.80
15705;DHT22;7952;48.396;12.806;2024-01-25T15:49:38;10.60;51.90
15705;DHT22;7952;48.396;12.806;2024-01-25T15:52:04;10.50;51.90
15705;DHT22;7952;48.396;12.806;2024-01-25T15:54:30;10.50;51.90
15705;DHT22;7952;48.396;12.806;2024-01-25T15:56:55;10.40;51.90
15705;DHT22;7952;48.396;12.806;2024-01-25T15:59:21;10.30;51.90
15705;DHT22;7952;48.396;12.806;2024-01-25T16:01:47;10.30;52.00
15705;DHT22;7952;48.396;12.806;2024-01-25T16:04:12;10.30;52.00
15705;DHT22;7952;48.396;12.806;2024-01-25T16:06:38;10.20;52.00
15705;DHT22;7952;48.396;12.806;2024-01-25T16:09:03;10.20;52.00
15705;DHT22;7952;48.396;12.806;2024-01-25T16:11:29;10.10;52.00
15705;DHT22;7952;48.396;12.806;2024-01-25T16:13:55;10.00;52.00
15705;DHT22;7952;48.396;12.806;2024-01-25T16:16:21;10.00;52.00
15705;DHT22;7952;48.396;12.806;2024-01-25T16:18:46;9.90;53.00
15705;DHT22;7952;48.396;12.806;2024-01-25T16:21:12;9.90;53.10
15705;DHT22;7952;48.396;12.806;2024-01-25T16:23:37;9.80;53.10
15705;DHT22;7952;48.396;12.806;2024-01-25T16:26:03;9.80;53.10
15705;DHT22;7952;48.396;12.806;2024-01-25T16:28:29;9.70;53.10
15705;DHT22;7952;48.396;12.806;2024-01-25T16:30:54;9.70;53.10
15705;DHT22;7952;48.396;12.806;2024-01-25T16:33:20;9.60;53.10
15705;DHT22;7952;48.396;12.806;2024-01-25T16:35:45;9.60;53.20
15705;DHT22;7952;48.396;12.806;2024-01-25T16:38:11;9.60;53.20
15705;DHT22;7952;48.396;12.806;2024-01-25T16:40:36;9.60;53.20
15705;DHT22;7952;48.396;12.806;2024-01-25T16:43:02;9.50;53.20
15705;DHT22;7952;48.396;12.806;2024-01-25T16:45:28;9.50;53.20
15705;DHT22;7952;48.396;12.806;2024-01-25T16:47:53;9.50;53.20
15705;DHT22;7952;48.396;12.806;2024-01-25T16:50:19;9.50;53.20
15705;DHT22;7952;48.396;12.806;2024-01-25T16:52:44;9.50;53.20
15705;DHT22;7952;48.396;12.806;2024-01-25T16:55:10;9.40;53.20
15705;DHT22;7952;48.396;12.806;2024-01-25T16:57:35;9.40;53.20
15705;DHT22;7952;48.396;12.806;2024-01-25T17:00:01;9.40;53.20
15705;DHT22;7952;48.396;12.806;2024-01-25T17:02:26;9.40;53.20
15705;DHT22;7952;48.396;12.806;2024-01-25T17:04:52;9.30;53.20
15705;DHT22;7952;48.396;12.806;2024-01-25T17:07:17;9.30;53.20
15705;DHT22;7952;48.396;12.806;2024-01-25T17:09:43;9.30;53.20
15705;DHT22;7952;48.396;12.806;2024-01-25T17:12:09;9.20;53.10
15705;DHT22;7952;48.396;12.806;2024-01-25T17:14:36;9.20;53.20
15705;DHT22;7952;48.396;12.806;2024-01-25T17:17:02;9.20;53.20
15705;DHT22;7952;48.396;12.806;2024-01-25T17:19:28;9.10;53.20
15705;DHT22;7952;48.396;12.806;2024-01-25T17:21:53;9.10;53.20
15705;DHT22;7952;48.396;12.806;2024-01-25T17:24:19;9.10;53.30
15705;DHT22;7952;48.396;12.806;2024-01-25T17:26:44;9.00;53.30
15705;DHT22;7952;48.396;12.806;2024-01-25T17:29:10;9.00;53.30
15705;DHT22;7952;48.396;12.806;2024-01-25T17:31:36;9.00;53.30
15705;DHT22;7952;48.396;12.806;2024-01-25T17:34:01;9.00;53.30
15705;DHT22;7952;48.396;12.806;2024-01-25T17:36:27;9.00;53.30
15705;DHT22;7952;48.396;12.806;2024-01-25T17:38:53;9.00;53.40
15705;DHT22;7952;48.396;12.806;2024-01-25T17:41:18;8.90;53.30
15705;DHT22;7952;48.396;12.806;2024-01-25T17:43:45;8.90;53.30
15705;DHT22;7952;48.396;12.806;2024-01-25T17:46:10;8.90;53.90
15705;DHT22;7952;48.396;12.806;2024-01-25T17:48:36;8.90;53.30
15705;DHT22;7952;48.396;12.806;2024-01-25T17:51:01;8.90;53.40
15705;DHT22;7952;48.396;12.806;2024-01-25T17:53:27;8.90;53.40
15705;DHT22;7952;48.396;12.806;2024-01-25T17:55:53;8.90;53.40
15705;DHT22;7952;48.396;12.806;2024-01-25T17:58:18;8.90;53.40
15705;DHT22;7952;48.396;12.806;2024-01-25T18:00:44;8.90;53.40
15705;DHT22;7952;48.396;12.806;2024-01-25T18:03:09;8.90;53.40
15705;DHT22;7952;48.396;12.806;2024-01-25T18:05:35;9.00;53.50
15705;DHT22;7952;48.396;12.806;2024-01-25T18:08:00;9.00;53.40
15705;DHT22;7952;48.396;12.806;2024-01-25T18:10:26;9.00;53.40
15705;DHT22;7952;48.396;12.806;2024-01-25T18:12:52;9.00;53.40
15705;DHT22;7952;48.396;12.806;2024-01-25T18:15:17;9.00;53.40
15705;DHT22;7952;48.396;12.806;2024-01-25T18:17:44;9.00;53.40
15705;DHT22;7952;48.396;12.806;2024-01-25T18:20:10;9.00;53.40
15705;DHT22;7952;48.396;12.806;2024-01-25T18:22:36;9.00;53.30
15705;DHT22;7952;48.396;12.806;2024-01-25T18:25:03;9.00;53.40
15705;DHT22;7952;48.396;12.806;2024-01-25T18:27:28;9.00;53.30
15705;DHT22;7952;48.396;12.806;2024-01-25T18:29:54;9.00;53.40
15705;DHT22;7952;48.396;12.806;2024-01-25T18:32:19;9.00;53.40
15705;DHT22;7952;48.396;12.806;2024-01-25T18:34:46;9.00;53.40
15705;DHT22;7952;48.396;12.806;2024-01-25T18:37:12;9.00;53.40
15705;DHT22;7952;48.396;12.806;2024-01-25T18:39:37;9.00;53.40
15705;DHT22;7952;48.396;12.806;2024-01-25T18:42:03;9.00;53.40
15705;DHT22;7952;48.396;12.806;2024-01-25T18:44:29;9.00;53.40
15705;DHT22;7952;48.396;12.806;2024-01-25T18:46:54;9.00;53.40
15705;DHT22;7952;48.396;12.806;2024-01-25T18:49:20;9.00;53.40
15705;DHT22;7952;48.396;12.806;2024-01-25T18:51:46;9.00;53.40
15705;DHT22;7952;48.396;12.806;2024-01-25T18:54:11;9.00;53.40
15705;DHT22;7952;48.396;12.806;2024-01-25T18:56:41;9.00;53.40
15705;DHT22;7952;48.396;12.806;2024-01-25T18:59:07;9.00;53.40
15705;DHT22;7952;48.396;12.806;2024-01-25T19:01:34;9.00;53.40
15705;DHT22;7952;48.396;12.806;2024-01-25T19:04:00;9.00;53.40
15705;DHT22;7952;48.396;12.806;2024-01-25T19:06:32;9.00;53.40
15705;DHT22;7952;48.396;12.806;2024-01-25T19:09:02;8.90;53.30
15705;DHT22;7952;48.396;12.806;2024-01-25T19:11:28;9.00;53.40
15705;DHT22;7952;48.396;12.806;2024-01-25T19:13:54;8.90;53.40
15705;DHT22;7952;48.396;12.806;2024-01-25T19:16:20;8.90;53.40
15705;DHT22;7952;48.396;12.806;2024-01-25T19:18:46;8.90;53.40
15705;DHT22;7952;48.396;12.806;2024-01-25T19:21:11;8.90;53.40
15705;DHT22;7952;48.396;12.806;2024-01-25T19:23:37;8.90;53.40
15705;DHT22;7952;48.396;12.806;2024-01-25T19:26:03;8.90;53.50
15705;DHT22;7952;48.396;12.806;2024-01-25T19:28:28;8.90;53.50
15705;DHT22;7952;48.396;12.806;2024-01-25T19:30:56;8.90;53.50
15705;DHT22;7952;48.396;12.806;2024-01-25T19:33:22;8.90;53.60
15705;DHT22;7952;48.396;12.806;2024-01-25T19:35:48;8.90;53.50
15705;DHT22;7952;48.396;12.806;2024-01-25T19:38:17;8.90;53.50
15705;DHT22;7952;48.396;12.806;2024-01-25T19:40:43;8.90;53.50
15705;DHT22;7952;48.396;12.806;2024-01-25T19:43:12;9.00;53.50
15705;DHT22;7952;48.396;12.806;2024-01-25T19:45:37;9.00;53.50
15705;DHT22;7952;48.396;12.806;2024-01-25T19:48:03;9.00;53.40
15705;DHT22;7952;48.396;12.806;2024-01-25T19:50:29;9.00;53.40
15705;DHT22;7952;48.396;12.806;2024-01-25T19:52:55;9.10;53.50
15705;DHT22;7952;48.396;12.806;2024-01-25T19:55:21;9.10;53.40
15705;DHT22;7952;48.396;12.806;2024-01-25T19:57:47;9.00;53.30
15705;DHT22;7952;48.396;12.806;2024-01-25T20:00:13;9.00;53.40
15705;DHT22;7952;48.396;12.806;2024-01-25T20:02:39;9.10;53.40
15705;DHT22;7952;48.396;12.806;2024-01-25T20:05:05;9.10;53.40
15705;DHT22;7952;48.396;12.806;2024-01-25T20:07:32;9.10;53.50
15705;DHT22;7952;48.396;12.806;2024-01-25T20:09:58;9.10;53.40
15705;DHT22;7952;48.396;12.806;2024-01-25T20:12:24;9.10;53.40
15705;DHT22;7952;48.396;12.806;2024-01-25T20:14:49;9.10;53.50